Time;durP1;ratioP1;P1;durP2;ratioP2;P2;SDS_P1;SDS_P2;PMS_P1;PMS_P2;Temp;Humidity;BMP_temperature;BMP_pressure;BME280_temperature;BME280_humidity;BME280_pressure;Samples;Min_cycle;Max_cycle;Signal;HPM_P1;HPM_P2
2022/06/27 00:02:45;;;;;;;10.50;9.83;;;24.00;1.00;;;;;;6332072;28;20276;-56
2022/06/27 00:05:48;;;;;;;11.27;10.47;;;24.00;1.00;;;;;;6335214;28;20641;-55
2022/06/27 00:08:51;;;;;;;10.80;10.20;;;23.90;1.00;;;;;;6328008;28;20342;-56
2022/06/27 00:11:57;;;;;;;11.50;10.90;;;23.90;1.00;;;;;;6327720;28;20232;-55
2022/06/27 00:15:05;;;;;;;11.43;10.63;;;23.90;1.00;;;;;;6334203;28;20228;-55
2022/06/27 00:18:09;;;;;;;11.07;10.47;;;23.90;1.00;;;;;;6332590;28;20397;-55
2022/06/27 00:21:12;;;;;;;11.97;11.17;;;23.90;1.00;;;;;;6329772;28;20231;-55
2022/06/27 00:24:15;;;;;;;11.20;10.30;;;23.80;1.00;;;;;;6329941;28;20728;-56
2022/06/27 00:27:18;;;;;;;10.93;10.33;;;23.70;1.00;;;;;;6321180;28;20611;-55
2022/06/27 00:30:22;;;;;;;11.47;10.73;;;23.70;1.00;;;;;;6329038;28;20262;-54
2022/06/27 00:33:26;;;;;;;11.73;11.03;;;23.70;1.00;;;;;;6333061;28;20424;-55
2022/06/27 00:36:29;;;;;;;11.27;10.67;;;23.70;1.00;;;;;;6332072;28;20239;-55
2022/06/27 00:39:32;;;;;;;11.80;11.10;;;23.60;1.00;;;;;;6331222;28;20235;-57
2022/06/27 00:42:35;;;;;;;11.47;10.67;;;23.60;1.00;;;;;;6330563;28;20319;-55
2022/06/27 00:45:38;;;;;;;11.90;11.20;;;23.50;1.00;;;;;;6328102;28;20716;-56
2022/06/27 00:48:43;;;;;;;11.27;10.47;;;23.50;1.00;;;;;;6328921;28;20236;-56
2022/06/27 00:51:46;;;;;;;11.03;10.23;;;23.50;1.00;;;;;;6323880;27;20365;-55
2022/06/27 00:54:49;;;;;;;12.27;11.60;;;23.50;1.00;;;;;;6332840;28;20239;-55
2022/06/27 00:57:53;;;;;;;10.97;10.40;;;23.40;1.00;;;;;;6321340;28;20676;-49
2022/06/27 01:00:56;;;;;;;11.63;11.03;;;23.40;1.00;;;;;;6315167;28;20460;-56
2022/06/27 01:04:01;;;;;;;10.77;10.27;;;23.30;1.00;;;;;;6331628;28;20486;-54
2022/06/27 01:07:06;;;;;;;10.93;10.33;;;23.30;1.00;;;;;;6328170;28;20312;-55
2022/06/27 01:10:15;;;;;;;11.57;10.77;;;23.30;1.00;;;;;;6328690;28;20685;-56
2022/06/27 01:13:18;;;;;;;11.30;10.70;;;23.20;1.00;;;;;;6326463;28;20323;-56
2022/06/27 01:16:23;;;;;;;10.73;10.13;;;23.20;1.00;;;;;;6333919;28;20346;-55
2022/06/27 01:19:27;;;;;;;12.13;11.33;;;23.20;1.00;;;;;;6333893;28;20366;-55
2022/06/27 01:22:32;;;;;;;12.30;11.47;;;23.10;1.00;;;;;;6327669;28;20238;-55
2022/06/27 01:25:36;;;;;;;12.37;11.67;;;23.10;1.00;;;;;;6329616;28;20239;-55
2022/06/27 01:28:39;;;;;;;12.07;11.47;;;23.10;1.00;;;;;;6332385;28;20338;-55
2022/06/27 01:31:42;;;;;;;11.00;10.40;;;23.10;1.00;;;;;;6328367;28;20357;-55
2022/06/27 01:34:45;;;;;;;11.23;10.63;;;23.10;1.00;;;;;;6315289;28;20912;-55
2022/06/27 01:37:53;;;;;;;11.83;11.10;;;23.00;1.00;;;;;;6310800;28;20584;-56
2022/06/27 01:40:55;;;;;;;12.87;11.87;;;23.00;1.00;;;;;;6311055;28;20694;-56
2022/06/27 01:43:58;;;;;;;12.80;11.80;;;23.00;1.00;;;;;;6326415;28;20232;-55
2022/06/27 01:47:04;;;;;;;11.67;10.93;;;23.00;1.00;;;;;;6320818;28;20312;-55
2022/06/27 01:50:10;;;;;;;12.10;11.40;;;23.00;1.00;;;;;;6326510;28;20264;-55
2022/06/27 01:53:14;;;;;;;13.13;12.30;;;23.00;1.00;;;;;;6313183;28;20374;-54
2022/06/27 01:56:18;;;;;;;12.57;11.97;;;23.00;1.00;;;;;;6316639;28;20484;-56
2022/06/27 01:59:24;;;;;;;13.93;12.97;;;22.90;1.00;;;;;;6318509;28;20405;-56
2022/06/27 02:02:36;;;;;;;13.43;12.70;;;22.90;1.00;;;;;;6319179;28;20477;-55
2022/06/27 02:05:38;;;;;;;13.07;12.27;;;22.90;1.00;;;;;;6312678;28;20284;-56
2022/06/27 02:08:47;;;;;;;12.97;12.13;;;22.90;1.00;;;;;;6321779;28;20723;-61
2022/06/27 02:11:51;;;;;;;12.20;11.50;;;22.90;1.00;;;;;;6325643;28;20310;-55
2022/06/27 02:14:55;;;;;;;13.30;12.20;;;22.90;1.00;;;;;;6321204;28;20712;-57
2022/06/27 02:18:11;;;;;;;13.37;12.43;;;22.90;1.00;;;;;;6254716;28;20780;-56
2022/06/27 02:21:18;;;;;;;12.70;12.00;;;22.90;1.00;;;;;;6267873;28;20241;-56
2022/06/27 02:24:22;;;;;;;14.40;13.13;;;22.90;1.00;;;;;;6272746;28;20237;-56
2022/06/27 02:27:25;;;;;;;13.90;13.10;;;22.80;1.00;;;;;;6282989;28;20245;-56
2022/06/27 02:30:28;;;;;;;14.13;13.23;;;22.80;1.00;;;;;;6275938;28;20299;-55
2022/06/27 02:33:37;;;;;;;14.23;13.43;;;22.80;1.00;;;;;;6274985;28;20310;-56
2022/06/27 02:36:51;;;;;;;14.87;13.73;;;22.70;1.00;;;;;;6279630;28;20738;-56
2022/06/27 02:39:57;;;;;;;14.23;13.43;;;22.70;1.00;;;;;;6280095;28;20237;-56
2022/06/27 02:43:01;;;;;;;14.33;13.27;;;22.70;1.00;;;;;;6268750;28;20256;-56
2022/06/27 02:46:04;;;;;;;14.27;13.17;;;22.70;1.00;;;;;;6279570;28;20318;-56
2022/06/27 02:49:08;;;;;;;14.33;13.33;;;22.70;1.00;;;;;;6307419;28;20232;-56
2022/06/27 02:52:19;;;;;;;16.20;14.93;;;22.70;1.00;;;;;;6295752;28;20674;-54
2022/06/27 02:55:28;;;;;;;14.43;13.63;;;22.60;1.00;;;;;;6330120;28;20269;-56
2022/06/27 02:58:37;;;;;;;14.43;13.60;;;22.60;1.00;;;;;;6329570;28;20725;-57
2022/06/27 03:01:43;;;;;;;15.07;14.17;;;22.60;1.00;;;;;;6317117;28;20331;-56
2022/06/27 03:04:46;;;;;;;14.90;13.80;;;22.60;1.00;;;;;;6335976;28;20252;-55
2022/06/27 03:07:50;;;;;;;15.80;14.60;;;22.60;1.00;;;;;;6324856;28;20255;-56
2022/06/27 03:10:55;;;;;;;15.30;14.33;;;22.50;1.00;;;;;;6328877;28;20252;-57
2022/06/27 03:13:58;;;;;;;15.87;14.67;;;22.50;1.00;;;;;;6332715;28;20242;-57
2022/06/27 03:17:00;;;;;;;16.43;15.40;;;22.50;1.00;;;;;;6332102;28;20594;-55
2022/06/27 03:20:04;;;;;;;16.03;14.73;;;22.50;1.00;;;;;;6331469;28;20499;-55
2022/06/27 03:23:07;;;;;;;15.13;14.23;;;22.50;1.00;;;;;;6329596;28;20243;-56
2022/06/27 03:26:11;;;;;;;16.10;15.00;;;22.50;1.00;;;;;;6333401;28;20369;-57
2022/06/27 03:29:14;;;;;;;17.03;15.73;;;22.50;1.00;;;;;;6333455;28;20614;-55
2022/06/27 03:32:17;;;;;;;15.90;14.90;;;22.50;1.00;;;;;;6313272;28;20227;-57
2022/06/27 03:35:20;;;;;;;14.90;14.00;;;22.50;1.00;;;;;;6332854;28;20323;-55
2022/06/27 03:38:23;;;;;;;17.17;16.07;;;22.50;1.00;;;;;;6328877;27;20240;-55
2022/06/27 03:41:27;;;;;;;15.67;14.77;;;22.50;1.00;;;;;;6324154;28;20232;-57
2022/06/27 03:44:30;;;;;;;17.03;15.83;;;22.40;1.00;;;;;;6331941;28;20397;-56
2022/06/27 03:47:33;;;;;;;16.87;15.53;;;22.40;1.00;;;;;;6333429;28;20406;-55
2022/06/27 03:50:36;;;;;;;18.40;17.13;;;22.40;1.00;;;;;;6327560;27;20229;-55
2022/06/27 03:53:39;;;;;;;18.13;16.77;;;22.50;1.00;;;;;;6323702;28;20558;-55
2022/06/27 03:56:44;;;;;;;17.03;15.93;;;22.40;1.00;;;;;;6332418;28;20319;-55
2022/06/27 03:59:47;;;;;;;17.00;15.70;;;22.50;1.00;;;;;;6332638;28;20774;-55
2022/06/27 04:02:50;;;;;;;15.20;14.30;;;22.50;1.00;;;;;;6328928;28;20315;-56
2022/06/27 04:05:53;;;;;;;17.63;16.37;;;22.50;1.00;;;;;;6324306;28;20236;-55
2022/06/27 04:08:55;;;;;;;18.87;17.57;;;22.50;1.00;;;;;;6325643;28;20732;-56
2022/06/27 04:12:03;;;;;;;17.83;16.50;;;22.50;1.00;;;;;;6325205;28;20261;-54
2022/06/27 04:15:08;;;;;;;18.97;17.27;;;22.50;1.00;;;;;;6331354;28;20378;-56
2022/06/27 04:18:11;;;;;;;17.97;16.57;;;22.60;1.00;;;;;;6309791;28;20303;-52
2022/06/27 04:21:13;;;;;;;16.70;15.60;;;22.50;1.00;;;;;;6317353;28;20670;-56
2022/06/27 04:24:16;;;;;;;18.10;16.80;;;22.60;1.00;;;;;;6312712;28;20319;-54
2022/06/27 04:27:21;;;;;;;18.30;17.03;;;22.60;1.00;;;;;;6325760;27;20559;-56
2022/06/27 04:30:25;;;;;;;18.20;16.90;;;22.60;1.00;;;;;;6329562;28;20284;-56
2022/06/27 04:33:29;;;;;;;18.10;16.73;;;22.60;1.00;;;;;;6330239;28;20623;-57
2022/06/27 04:36:38;;;;;;;17.97;16.57;;;22.70;1.00;;;;;;6324213;28;20600;-55
2022/06/27 04:39:41;;;;;;;17.57;16.37;;;22.70;1.00;;;;;;6326229;28;20233;-55
2022/06/27 04:42:48;;;;;;;17.00;15.90;;;22.80;1.00;;;;;;6324436;28;20388;-56
2022/06/27 04:45:52;;;;;;;16.93;15.83;;;22.80;1.00;;;;;;6322644;28;20228;-57
2022/06/27 04:48:57;;;;;;;18.63;17.43;;;22.80;1.00;;;;;;6327721;28;20246;-56
2022/06/27 04:52:00;;;;;;;18.37;17.17;;;22.90;1.00;;;;;;6311644;28;20256;-55
2022/06/27 04:55:07;;;;;;;16.43;15.43;;;23.00;1.00;;;;;;6332100;28;20266;-57
2022/06/27 04:58:11;;;;;;;18.83;17.30;;;23.10;1.00;;;;;;6325405;28;20509;-56
2022/06/27 05:01:17;;;;;;;17.63;16.60;;;23.20;1.00;;;;;;6328723;28;20291;-56
2022/06/27 05:04:21;;;;;;;17.83;16.67;;;23.50;1.00;;;;;;6327373;28;20243;-55
2022/06/27 05:07:25;;;;;;;18.60;17.00;;;23.80;1.00;;;;;;6324919;28;20232;-58
2022/06/27 05:10:29;;;;;;;18.77;17.40;;;24.00;1.00;;;;;;6318296;28;20396;-55
2022/06/27 05:13:34;;;;;;;17.23;16.13;;;24.30;1.00;;;;;;6325311;28;20244;-55
2022/06/27 05:16:39;;;;;;;17.63;16.23;;;24.70;1.00;;;;;;6329314;28;20327;-55
2022/06/27 05:19:42;;;;;;;18.03;16.93;;;25.00;1.00;;;;;;6327643;28;20228;-55
2022/06/27 05:22:45;;;;;;;17.87;16.57;;;25.30;1.00;;;;;;6324982;28;20469;-56
2022/06/27 05:25:48;;;;;;;18.73;17.20;;;25.60;1.00;;;;;;6324865;27;20624;-56
2022/06/27 05:28:53;;;;;;;18.03;16.30;;;25.90;1.00;;;;;;6330349;28;20617;-56
2022/06/27 05:31:56;;;;;;;16.97;15.93;;;26.00;1.00;;;;;;6327210;28;20527;-56
2022/06/27 05:35:03;;;;;;;16.33;15.23;;;26.40;1.00;;;;;;6328971;28;20569;-55
2022/06/27 05:38:07;;;;;;;17.07;15.60;;;26.70;1.00;;;;;;6326635;28;20242;-55
2022/06/27 05:41:11;;;;;;;16.63;15.23;;;27.00;1.00;;;;;;6317769;27;20247;-55
2022/06/27 05:44:15;;;;;;;15.50;14.40;;;27.30;1.00;;;;;;6321564;28;20870;-55
2022/06/27 05:47:18;;;;;;;16.10;14.93;;;27.60;1.00;;;;;;6329012;28;20234;-55
2022/06/27 05:50:21;;;;;;;15.57;13.90;;;27.70;1.00;;;;;;6325686;28;20319;-55
2022/06/27 05:53:24;;;;;;;15.70;14.40;;;27.80;1.00;;;;;;6328013;28;20323;-54
2022/06/27 05:56:28;;;;;;;14.37;13.30;;;27.90;1.00;;;;;;6332865;28;20311;-55
2022/06/27 05:59:33;;;;;;;13.83;12.93;;;28.20;1.00;;;;;;6334581;28;20488;-55
2022/06/27 06:02:39;;;;;;;15.37;14.07;;;28.40;1.00;;;;;;6331791;28;20628;-56
2022/06/27 06:05:42;;;;;;;16.35;15.00;;;28.50;1.00;;;;;;6330136;28;20223;-55
2022/06/27 06:08:46;;;;;;;14.80;13.70;;;28.80;1.00;;;;;;6330992;28;20227;-55
2022/06/27 06:11:51;;;;;;;14.23;13.15;;;29.10;1.00;;;;;;6331350;28;20227;-56
2022/06/27 06:15:02;;;;;;;15.60;14.30;;;29.40;1.00;;;;;;6333336;28;20273;-56
2022/06/27 06:18:05;;;;;;;15.98;14.60;;;29.40;1.00;;;;;;6330201;28;20719;-51
2022/06/27 06:21:08;;;;;;;13.98;12.88;;;29.70;1.00;;;;;;6332559;28;20232;-56
2022/06/27 06:24:12;;;;;;;15.02;13.85;;;29.90;1.00;;;;;;6331705;28;20300;-56
2022/06/27 06:27:16;;;;;;;13.68;12.88;;;30.00;1.00;;;;;;6334588;28;20232;-56
2022/06/27 06:30:21;;;;;;;14.20;12.90;;;30.20;1.00;;;;;;6330777;27;20286;-55
2022/06/27 06:33:24;;;;;;;13.88;12.98;;;30.30;1.00;;;;;;6334285;28;20247;-57
2022/06/27 06:36:27;;;;;;;14.25;13.10;;;30.50;1.00;;;;;;6335106;28;20232;-55
2022/06/27 06:39:30;;;;;;;12.48;11.65;;;30.60;1.00;;;;;;6330149;28;20394;-54
2022/06/27 06:42:36;;;;;;;12.32;11.50;;;30.80;1.00;;;;;;6320968;28;20377;-55
2022/06/27 06:45:40;;;;;;;12.32;11.40;;;31.00;1.00;;;;;;6335563;28;20357;-54
2022/06/27 06:48:44;;;;;;;12.93;11.70;;;31.10;1.00;;;;;;6333771;28;20232;-53
2022/06/27 06:51:51;;;;;;;12.38;11.45;;;31.30;1.00;;;;;;6318047;28;20232;-54
2022/06/27 06:54:54;;;;;;;12.05;11.20;;;31.50;1.00;;;;;;6334937;27;20329;-54
2022/06/27 06:57:57;;;;;;;10.30;9.70;;;31.60;1.00;;;;;;6330943;28;20243;-55
2022/06/27 07:01:02;;;;;;;10.75;10.00;;;31.80;1.00;;;;;;6330028;28;20244;-55
2022/06/27 07:04:06;;;;;;;10.45;9.88;;;31.80;1.00;;;;;;6332704;28;20279;-55
2022/06/27 07:07:09;;;;;;;11.95;10.80;;;32.00;1.00;;;;;;6316966;28;20836;-53
2022/06/27 07:10:13;;;;;;;11.70;10.63;;;32.10;1.00;;;;;;6328110;28;20345;-54
2022/06/27 07:13:17;;;;;;;13.45;9.30;;;32.10;1.00;;;;;;6329306;28;20236;-55
2022/06/27 07:16:24;;;;;;;9.85;8.68;;;32.30;1.00;;;;;;6332058;28;20358;-56
2022/06/27 07:19:29;;;;;;;9.82;9.07;;;32.40;1.00;;;;;;6332995;28;20732;-56
2022/06/27 07:22:32;;;;;;;11.68;8.50;;;32.40;1.00;;;;;;6327005;28;20278;-55
2022/06/27 07:25:36;;;;;;;9.88;9.00;;;32.40;1.00;;;;;;6334704;28;20262;-54
2022/06/27 07:28:38;;;;;;;9.07;8.45;;;32.30;1.00;;;;;;6330090;28;20263;-55
2022/06/27 07:31:43;;;;;;;9.32;8.82;;;32.00;1.00;;;;;;6332884;28;20232;-55
2022/06/27 07:34:46;;;;;;;8.82;8.23;;;31.90;1.00;;;;;;6331968;28;20243;-54
2022/06/27 07:37:51;;;;;;;7.93;7.43;;;32.10;1.00;;;;;;6331106;27;20228;-54
2022/06/27 07:40:56;;;;;;;8.85;7.63;;;32.00;1.00;;;;;;6329465;28;20617;-55
2022/06/27 07:44:00;;;;;;;8.27;7.78;;;32.00;1.00;;;;;;6328974;28;20236;-54
2022/06/27 07:47:07;;;;;;;9.10;8.15;;;32.00;1.00;;;;;;6329670;28;20227;-55
2022/06/27 07:50:11;;;;;;;6.65;6.15;;;32.10;1.00;;;;;;6329160;28;20467;-53
2022/06/27 07:53:16;;;;;;;6.95;6.53;;;32.20;1.00;;;;;;6324986;28;20268;-54
2022/06/27 07:56:22;;;;;;;6.80;6.30;;;32.10;1.00;;;;;;6328440;28;20284;-59
2022/06/27 07:59:45;;;;;;;7.07;6.68;;;32.10;1.00;;;;;;6333457;28;20228;-52
2022/06/27 08:02:49;;;;;;;7.20;6.80;;;32.00;1.00;;;;;;6331061;28;20267;-53
2022/06/27 08:05:54;;;;;;;6.88;6.45;;;32.00;1.00;;;;;;6331713;28;20620;-55
2022/06/27 08:08:59;;;;;;;6.55;6.25;;;32.00;1.00;;;;;;6326065;28;21341;-54
2022/06/27 08:12:02;;;;;;;7.68;6.40;;;31.90;1.00;;;;;;6322197;28;20535;-54
2022/06/27 08:15:06;;;;;;;5.55;5.05;;;31.90;1.00;;;;;;6330387;28;20721;-53
2022/06/27 08:18:11;;;;;;;6.20;5.65;;;31.90;1.00;;;;;;6331661;28;20659;-54
2022/06/27 08:21:19;;;;;;;5.22;4.70;;;31.90;1.00;;;;;;6323323;28;20315;-55
2022/06/27 08:24:24;;;;;;;6.03;5.05;;;32.00;1.00;;;;;;6324016;28;20347;-55
2022/06/27 08:27:27;;;;;;;4.60;4.50;;;31.80;1.00;;;;;;6331972;28;20558;-55
2022/06/27 08:30:30;;;;;;;5.43;5.22;;;31.80;1.00;;;;;;6327271;28;20331;-54
2022/06/27 08:33:35;;;;;;;5.05;4.82;;;31.70;1.00;;;;;;6326219;28;20288;-54
2022/06/27 08:36:41;;;;;;;5.40;5.20;;;31.70;1.00;;;;;;6317439;28;20224;-53
2022/06/27 08:39:44;;;;;;;5.43;5.18;;;31.80;1.00;;;;;;6324372;28;20240;-55
2022/06/27 08:42:48;;;;;;;4.88;4.57;;;31.90;1.00;;;;;;6325103;28;20327;-55
2022/06/27 08:45:52;;;;;;;6.28;5.88;;;32.10;1.00;;;;;;6331375;28;20230;-54
2022/06/27 08:48:56;;;;;;;5.22;5.13;;;32.20;1.00;;;;;;6328191;28;20240;-55
2022/06/27 08:52:00;;;;;;;4.85;4.75;;;32.40;1.00;;;;;;6317540;28;20492;-54
2022/06/27 08:55:05;;;;;;;5.15;5.05;;;32.50;1.00;;;;;;6333120;28;20242;-55
2022/06/27 08:58:12;;;;;;;5.05;4.95;;;32.70;1.00;;;;;;6332257;28;20436;-54
2022/06/27 09:01:16;;;;;;;3.90;3.70;;;32.90;1.00;;;;;;6330330;28;20339;-55
2022/06/27 09:04:21;;;;;;;3.30;3.20;;;33.00;1.00;;;;;;6327172;28;20240;-54
2022/06/27 09:07:24;;;;;;;3.45;3.22;;;33.10;1.00;;;;;;6328169;28;20514;-55
2022/06/27 09:10:30;;;;;;;4.10;4.00;;;33.10;1.00;;;;;;6324830;27;20228;-56
2022/06/27 09:13:41;;;;;;;4.20;4.00;;;33.10;1.00;;;;;;6320829;28;20319;-55
2022/06/27 09:16:57;;;;;;;5.35;4.13;;;33.00;1.00;;;;;;6328854;28;20787;-55
2022/06/27 09:20:02;;;;;;;4.20;4.10;;;32.90;1.00;;;;;;6328814;28;20269;-55
2022/06/27 09:23:05;;;;;;;4.18;4.07;;;32.90;1.00;;;;;;6317561;28;20342;-55
2022/06/27 09:26:12;;;;;;;4.38;4.28;;;33.00;1.00;;;;;;6330409;28;20231;-54
2022/06/27 09:29:17;;;;;;;5.60;4.38;;;33.00;1.00;;;;;;6330636;28;20700;-54
2022/06/27 09:32:26;;;;;;;3.95;3.85;;;33.10;1.00;;;;;;6323291;28;20252;-54
2022/06/27 09:35:32;;;;;;;4.63;4.45;;;33.10;1.00;;;;;;6329833;28;20306;-54
2022/06/27 09:38:43;;;;;;;4.47;4.32;;;33.10;1.00;;;;;;6327316;28;20458;-55
2022/06/27 09:41:58;;;;;;;4.88;4.68;;;33.20;1.00;;;;;;6324148;28;20284;-55
2022/06/27 09:45:02;;;;;;;4.70;4.50;;;33.30;1.00;;;;;;6327919;28;20243;-55
2022/06/27 09:48:06;;;;;;;4.28;4.07;;;33.40;1.00;;;;;;6327975;28;20633;-55
2022/06/27 09:51:14;;;;;;;4.30;4.20;;;33.40;1.00;;;;;;6326575;28;20232;-55
2022/06/27 09:54:21;;;;;;;4.07;3.97;;;33.30;1.00;;;;;;6321687;28;20252;-54
2022/06/27 09:57:24;;;;;;;4.65;4.35;;;33.30;1.00;;;;;;6323612;28;20231;-55
2022/06/27 10:00:27;;;;;;;5.80;4.05;;;33.20;1.00;;;;;;6326576;28;20252;-55
2022/06/27 10:03:36;;;;;;;3.67;3.55;;;33.30;1.00;;;;;;6330264;28;20420;-55
2022/06/27 10:06:42;;;;;;;3.90;3.80;;;33.20;1.00;;;;;;6325165;28;20343;-54
2022/06/27 10:09:48;;;;;;;3.72;3.63;;;33.30;1.00;;;;;;6328181;28;20255;-54
2022/06/27 10:12:59;;;;;;;3.67;3.58;;;33.30;1.00;;;;;;6323269;28;20326;-55
2022/06/27 10:16:08;;;;;;;3.42;3.22;;;33.20;1.00;;;;;;6331600;28;20271;-54
2022/06/27 10:19:15;;;;;;;3.90;3.60;;;33.30;1.00;;;;;;6323312;28;20611;-57
2022/06/27 10:22:27;;;;;;;3.45;3.30;;;33.20;1.00;;;;;;6327964;28;20995;-55
2022/06/27 10:25:37;;;;;;;3.63;3.53;;;33.30;1.00;;;;;;6322269;28;20232;-54
2022/06/27 10:28:40;;;;;;;3.63;3.42;;;33.30;1.00;;;;;;6329916;28;20674;-55
2022/06/27 10:31:45;;;;;;;3.75;3.42;;;33.40;1.00;;;;;;6321197;28;20232;-55
2022/06/27 10:35:09;;;;;;;3.20;3.10;;;33.40;1.00;;;;;;6330920;28;20455;-56
2022/06/27 10:38:23;;;;;;;3.97;3.25;;;33.40;1.00;;;;;;6326834;28;20463;-53
2022/06/27 10:41:38;;;;;;;3.42;3.22;;;33.40;1.00;;;;;;6325352;28;20489;-54
2022/06/27 10:44:43;;;;;;;3.17;3.03;;;33.50;1.00;;;;;;6326642;28;20631;-54
2022/06/27 10:47:46;;;;;;;2.88;2.67;;;33.50;1.00;;;;;;6334697;27;20450;-55
2022/06/27 10:50:49;;;;;;;2.95;2.72;;;33.60;1.00;;;;;;6330497;27;20647;-55
2022/06/27 10:54:10;;;;;;;2.70;2.70;;;33.50;1.00;;;;;;6328194;28;20253;-54
2022/06/27 10:57:13;;;;;;;2.58;2.58;;;33.60;1.00;;;;;;6327703;28;20777;-53
2022/06/27 11:00:42;;;;;;;3.40;3.08;;;33.60;1.00;;;;;;6322819;27;20238;-56
2022/06/27 11:03:46;;;;;;;6.07;3.28;;;33.70;1.00;;;;;;6329124;28;20691;-54
2022/06/27 11:06:56;;;;;;;3.80;3.50;;;33.70;1.00;;;;;;6321204;28;20244;-54
2022/06/27 11:10:01;;;;;;;3.60;3.40;;;33.80;1.00;;;;;;6329895;28;20236;-57
2022/06/27 11:13:40;;;;;;;4.10;3.80;;;33.80;1.00;;;;;;6325223;28;20236;-54
2022/06/27 11:16:42;;;;;;;3.72;3.53;;;33.70;1.00;;;;;;6324148;28;20309;-54
2022/06/27 11:20:07;;;;;;;4.63;3.15;;;33.70;1.00;;;;;;6327399;28;20256;-53
2022/06/27 11:23:31;;;;;;;3.33;3.22;;;33.80;1.00;;;;;;6328347;28;20813;-55
2022/06/27 11:26:37;;;;;;;3.75;3.63;;;33.80;1.00;;;;;;6332092;28;20700;-53
2022/06/27 11:33:05;;;;;;;3.60;3.40;;;34.10;1.00;;;;;;6307240;28;20231;-55
2022/06/27 11:36:11;;;;;;;3.78;3.45;;;34.40;1.00;;;;;;6333132;28;20585;-53
2022/06/27 11:39:16;;;;;;;3.85;3.50;;;34.40;1.00;;;;;;6330041;28;20243;-54
2022/06/27 11:42:29;;;;;;;3.88;3.58;;;34.30;1.00;;;;;;6309722;27;20506;-57
2022/06/27 11:45:40;;;;;;;4.05;3.78;;;34.30;1.00;;;;;;6329621;27;20718;-54
2022/06/27 11:48:51;;;;;;;3.65;3.55;;;34.10;1.00;;;;;;6324426;28;20251;-55
2022/06/27 11:51:58;;;;;;;3.42;3.22;;;34.00;1.00;;;;;;6324991;28;20265;-54
2022/06/27 11:55:10;;;;;;;2.95;2.95;;;34.00;1.00;;;;;;6316536;28;20438;-54
2022/06/27 11:58:14;;;;;;;3.45;3.25;;;34.10;1.00;;;;;;6316904;28;20616;-55
2022/06/27 12:01:17;;;;;;;3.45;3.35;;;34.40;1.00;;;;;;6327315;27;20351;-55
2022/06/27 12:04:23;;;;;;;3.35;3.15;;;34.50;1.00;;;;;;6328361;27;20243;-55
2022/06/27 12:07:26;;;;;;;3.30;3.10;;;34.40;1.00;;;;;;6324266;27;20524;-55
2022/06/27 12:14:09;;;;;;;3.38;3.28;;;34.60;1.00;;;;;;6318720;28;20544;-55
2022/06/27 12:17:12;;;;;;;3.50;3.30;;;34.80;1.00;;;;;;6332896;28;20365;-56
2022/06/27 12:20:15;;;;;;;3.30;3.20;;;34.90;1.00;;;;;;6329615;28;20604;-54
2022/06/27 12:23:18;;;;;;;3.65;3.45;;;35.10;1.00;;;;;;6328099;28;20239;-55
2022/06/27 12:26:21;;;;;;;4.75;3.47;;;35.20;1.00;;;;;;6329301;28;20236;-54
2022/06/27 12:29:25;;;;;;;4.03;3.92;;;35.20;1.00;;;;;;6332519;28;20262;-54
2022/06/27 12:32:28;;;;;;;3.50;3.30;;;35.20;1.00;;;;;;6325333;28;20426;-54
2022/06/27 12:35:37;;;;;;;4.15;3.75;;;35.30;1.00;;;;;;6332419;28;20686;-55
2022/06/27 12:38:41;;;;;;;3.90;3.53;;;35.20;1.00;;;;;;6323469;28;20348;-55
2022/06/27 12:41:44;;;;;;;3.60;3.40;;;35.20;1.00;;;;;;6320207;28;20224;-54
2022/06/27 12:44:48;;;;;;;3.75;3.45;;;35.20;1.00;;;;;;6330004;28;20720;-55
2022/06/27 12:47:51;;;;;;;3.38;3.17;;;35.30;1.00;;;;;;6326463;27;20677;-54
2022/06/27 12:50:55;;;;;;;3.92;3.45;;;35.30;1.00;;;;;;6317187;28;20282;-54
2022/06/27 12:53:59;;;;;;;4.30;3.20;;;35.40;1.00;;;;;;6315940;28;20240;-55
2022/06/27 12:57:04;;;;;;;7.90;3.83;;;35.40;1.00;;;;;;6332110;28;20353;-55
2022/06/27 13:00:10;;;;;;;3.90;3.40;;;35.60;1.00;;;;;;6329316;28;20598;-53
2022/06/27 13:03:14;;;;;;;5.68;3.92;;;35.40;1.00;;;;;;6313959;28;20713;-55
2022/06/27 13:06:17;;;;;;;3.88;3.67;;;35.40;1.00;;;;;;6324493;28;20485;-51
2022/06/27 13:09:20;;;;;;;3.72;3.50;;;35.40;1.00;;;;;;6317870;28;20880;-54
2022/06/27 13:12:23;;;;;;;3.72;3.50;;;35.50;1.00;;;;;;6322992;28;20242;-53
2022/06/27 13:15:29;;;;;;;4.10;3.90;;;35.40;1.00;;;;;;6324157;28;20233;-54
2022/06/27 13:18:32;;;;;;;3.90;3.47;;;35.50;1.00;;;;;;6330472;28;20724;-54
2022/06/27 13:21:35;;;;;;;4.10;3.25;;;35.40;1.00;;;;;;6313712;28;20336;-54
2022/06/27 13:24:38;;;;;;;3.47;3.10;;;35.40;1.00;;;;;;6325985;28;20227;-55
2022/06/27 13:27:41;;;;;;;3.00;2.85;;;35.30;1.00;;;;;;6324043;28;20708;-54
2022/06/27 13:30:46;;;;;;;5.85;3.78;;;35.10;1.00;;;;;;6320580;28;20251;-55
2022/06/27 13:33:49;;;;;;;3.72;3.55;;;35.10;1.00;;;;;;6323415;28;20322;-53
2022/06/27 13:36:52;;;;;;;3.53;3.28;;;35.00;1.00;;;;;;6328071;28;20322;-53
2022/06/27 13:39:55;;;;;;;3.75;3.50;;;35.00;1.00;;;;;;6312810;28;20316;-54
2022/06/27 13:42:58;;;;;;;3.58;3.30;;;35.00;1.00;;;;;;6326515;28;20231;-53
2022/06/27 13:46:02;;;;;;;3.45;3.35;;;35.00;1.00;;;;;;6325199;28;20660;-53
2022/06/27 13:49:05;;;;;;;3.53;3.42;;;35.20;1.00;;;;;;6309864;28;20500;-54
2022/06/27 13:52:08;;;;;;;3.45;3.20;;;35.40;1.00;;;;;;6307854;28;20534;-54
2022/06/27 13:55:15;;;;;;;3.45;3.35;;;35.50;1.00;;;;;;6310792;28;20399;-54
2022/06/27 13:58:18;;;;;;;3.45;3.25;;;35.70;1.00;;;;;;6322769;28;20235;-53
2022/06/27 14:01:24;;;;;;;3.55;3.25;;;35.80;1.00;;;;;;6322401;28;20236;-53
2022/06/27 14:04:32;;;;;;;3.05;2.80;;;35.80;1.00;;;;;;6323798;28;20236;-53
2022/06/27 14:07:39;;;;;;;4.32;2.70;;;35.60;1.00;;;;;;6321104;28;20293;-53
2022/06/27 14:10:56;;;;;;;3.05;2.47;;;35.70;1.00;;;;;;6325074;28;20705;-54
2022/06/27 14:13:59;;;;;;;2.97;2.90;;;35.60;1.00;;;;;;6318968;28;20510;-54
2022/06/27 14:17:04;;;;;;;2.92;2.70;;;35.50;1.00;;;;;;6331298;28;20235;-55
2022/06/27 14:20:10;;;;;;;6.68;2.90;;;35.60;1.00;;;;;;6335543;28;20372;-56
2022/06/27 14:23:16;;;;;;;2.95;2.75;;;35.60;1.00;;;;;;6324017;28;20461;-55
2022/06/27 14:26:19;;;;;;;2.63;2.53;;;35.70;1.00;;;;;;6327592;28;20810;-55
2022/06/27 14:29:23;;;;;;;2.75;2.67;;;35.80;1.00;;;;;;6333632;28;20232;-55
2022/06/27 14:32:28;;;;;;;3.13;2.92;;;35.80;1.00;;;;;;6329385;28;20271;-55
2022/06/27 14:35:31;;;;;;;2.58;2.58;;;35.80;1.00;;;;;;6334964;28;20300;-54
2022/06/27 14:38:34;;;;;;;2.80;2.70;;;35.80;1.00;;;;;;6328021;27;20323;-55
2022/06/27 14:41:40;;;;;;;3.05;2.85;;;35.60;1.00;;;;;;6328596;28;20237;-53
2022/06/27 14:44:44;;;;;;;2.85;2.75;;;35.40;1.00;;;;;;6331967;28;20297;-55
2022/06/27 14:47:49;;;;;;;3.00;2.80;;;35.20;1.00;;;;;;6331565;28;20338;-56
2022/06/27 14:50:58;;;;;;;3.65;3.40;;;35.30;1.00;;;;;;6333884;27;20227;-53
2022/06/27 14:54:01;;;;;;;3.10;3.00;;;35.30;1.00;;;;;;6329813;28;20355;-54
2022/06/27 14:57:05;;;;;;;4.00;3.10;;;35.60;1.00;;;;;;6335003;28;20236;-54
2022/06/27 15:00:09;;;;;;;2.85;2.65;;;35.70;1.00;;;;;;6333970;27;22596;-54
2022/06/27 15:03:13;;;;;;;4.70;3.08;;;35.80;1.00;;;;;;6333686;28;20803;-56
2022/06/27 15:06:18;;;;;;;3.05;2.90;;;35.90;1.00;;;;;;6334571;28;20375;-54
2022/06/27 15:09:26;;;;;;;2.75;2.70;;;35.80;1.00;;;;;;6330627;28;20258;-55
2022/06/27 15:12:29;;;;;;;2.83;2.63;;;35.80;1.00;;;;;;6325047;27;20241;-55
2022/06/27 15:15:31;;;;;;;2.80;2.80;;;35.80;1.00;;;;;;6334144;28;20555;-54
2022/06/27 15:18:36;;;;;;;2.67;2.58;;;35.70;1.00;;;;;;6333118;28;20236;-54
2022/06/27 15:21:40;;;;;;;5.03;3.25;;;35.60;1.00;;;;;;6329736;28;20378;-54
2022/06/27 15:25:04;;;;;;;3.45;3.35;;;35.40;1.00;;;;;;6336627;27;20242;-54
2022/06/27 15:28:07;;;;;;;2.60;2.60;;;35.50;1.00;;;;;;6334018;27;20262;-53
2022/06/27 15:31:10;;;;;;;3.17;2.92;;;35.40;1.00;;;;;;6332650;28;20314;-54
2022/06/27 15:34:15;;;;;;;4.63;3.40;;;35.30;1.00;;;;;;6327996;27;20403;-54
2022/06/27 15:37:18;;;;;;;3.55;3.35;;;35.20;1.00;;;;;;6326607;28;20336;-54
2022/06/27 15:40:21;;;;;;;3.85;3.30;;;35.10;1.00;;;;;;6333273;28;20322;-54
2022/06/27 15:43:24;;;;;;;3.35;3.17;;;35.00;1.00;;;;;;6328066;28;20361;-54
2022/06/27 15:46:27;;;;;;;3.47;3.20;;;34.90;1.00;;;;;;6332013;28;20419;-55
2022/06/27 15:49:31;;;;;;;3.35;3.15;;;34.80;1.00;;;;;;6329008;28;20247;-55
2022/06/27 15:52:36;;;;;;;3.25;3.05;;;34.70;1.00;;;;;;6323109;28;20327;-54
2022/06/27 15:55:40;;;;;;;4.05;3.75;;;34.90;1.00;;;;;;6333499;28;20753;-54
2022/06/27 15:58:43;;;;;;;5.75;3.40;;;35.10;1.00;;;;;;6333514;28;20235;-55
2022/06/27 16:01:45;;;;;;;3.20;2.92;;;35.20;1.00;;;;;;6320707;28;20314;-55
2022/06/27 16:04:51;;;;;;;3.33;3.13;;;35.30;1.00;;;;;;6333547;28;20228;-54
2022/06/27 16:07:54;;;;;;;3.15;3.08;;;35.10;1.00;;;;;;6324646;28;20240;-53
2022/06/27 16:11:02;;;;;;;3.30;3.20;;;35.00;1.00;;;;;;6328042;28;20314;-55
2022/06/27 16:14:04;;;;;;;3.00;2.83;;;34.80;1.00;;;;;;6330708;27;20311;-54